Time;durP1;ratioP1;P1;durP2;ratioP2;P2;SDS_P1;SDS_P2;PMS_P1;PMS_P2;Temp;Humidity;BMP_temperature;BMP_pressure;BME280_temperature;BME280_humidity;BME280_pressure;Samples;Min_cycle;Max_cycle;Signal;HPM_P1;HPM_P2
2021/05/25 00:00:22;;;;;;;;;0.00;0.00;;;;;10.34;60.95;101030.09;5004508;28;51987;-51
2021/05/25 00:02:48;;;;;;;;;0.00;0.00;;;;;10.38;61.03;101044.09;4997254;28;51306;-53
2021/05/25 00:05:18;;;;;;;;;0.00;0.00;;;;;10.41;60.67;101038.16;4998173;28;51181;-51
2021/05/25 00:07:43;;;;;;;;;1.00;0.50;;;;;10.43;60.46;101050.38;5002830;28;51265;-49
2021/05/25 00:10:09;;;;;;;;;0.75;0.75;;;;;10.46;60.44;101052.25;4986152;28;52948;-52
2021/05/25 00:12:35;;;;;;;;;0.00;0.00;;;;;10.49;60.24;101062.81;5002572;28;51466;-49
2021/05/25 00:15:02;;;;;;;;;1.75;1.00;;;;;10.49;60.30;101068.91;4999135;28;52259;-52
2021/05/25 00:17:28;;;;;;;;;1.00;0.75;;;;;10.45;60.43;101081.66;4998619;28;51426;-50
2021/05/25 00:19:53;;;;;;;;;0.00;0.00;;;;;10.42;60.40;101060.72;4997534;28;51973;-55
2021/05/25 00:22:19;;;;;;;;;0.00;0.00;;;;;10.33;60.52;101072.44;4986987;28;51188;-52
2021/05/25 00:24:44;;;;;;;;;0.00;0.00;;;;;10.33;60.47;101082.81;4998709;28;51394;-51
2021/05/25 00:27:10;;;;;;;;;0.00;0.00;;;;;10.35;60.35;101090.69;4993803;28;51249;-54
2021/05/25 00:29:35;;;;;;;;;1.00;1.00;;;;;10.38;60.16;101101.19;4999827;28;51483;-55
2021/05/25 00:32:01;;;;;;;;;1.00;0.00;;;;;10.41;60.21;101095.25;4985731;28;51155;-53
2021/05/25 00:34:26;;;;;;;;;1.00;1.00;;;;;10.46;60.13;101099.91;5000600;28;51236;-52
2021/05/25 00:36:52;;;;;;;;;0.00;0.00;;;;;10.48;60.31;101105.19;4998885;28;51159;-55
2021/05/25 00:39:17;;;;;;;;;0.00;0.00;;;;;10.50;59.95;101113.91;4979777;28;52735;-53
2021/05/25 00:41:43;;;;;;;;;1.00;0.00;;;;;10.52;59.83;101111.41;4998638;28;51106;-51
2021/05/25 00:44:09;;;;;;;;;0.00;0.00;;;;;10.52;59.99;101129.56;4999482;28;51375;-50
2021/05/25 00:46:40;;;;;;;;;0.00;0.00;;;;;10.50;60.25;101126.91;5001612;28;52341;-49
2021/05/25 00:49:07;;;;;;;;;0.00;0.00;;;;;10.51;60.40;101152.06;5002639;28;53624;-50
2021/05/25 00:51:34;;;;;;;;;1.00;1.00;;;;;10.53;60.80;101160.81;5006785;28;51217;-52
2021/05/25 00:53:59;;;;;;;;;0.25;0.25;;;;;10.52;61.02;101164.22;5003794;28;51192;-51
2021/05/25 00:56:25;;;;;;;;;0.00;0.00;;;;;10.48;61.00;101164.91;5003770;28;51193;-52
2021/05/25 00:58:51;;;;;;;;;0.00;0.00;;;;;10.43;61.35;101162.03;5006969;28;51239;-51
2021/05/25 01:01:17;;;;;;;;;0.00;0.00;;;;;10.41;61.50;101162.78;5004097;28;51176;-50
2021/05/25 01:03:42;;;;;;;;;0.00;0.00;;;;;10.37;61.79;101165.25;5003222;28;51406;-54
2021/05/25 01:06:08;;;;;;;;;0.00;0.00;;;;;10.35;61.52;101164.25;4969043;28;51950;-52
2021/05/25 01:08:36;;;;;;;;;0.00;0.00;;;;;10.35;61.85;101158.19;4989133;28;52032;-52
2021/05/25 01:11:04;;;;;;;;;0.00;0.00;;;;;10.33;61.95;101171.09;5004617;28;53781;-50
2021/05/25 01:13:31;;;;;;;;;0.00;0.00;;;;;10.33;62.13;101167.59;4999182;28;51249;-50
2021/05/25 01:15:57;;;;;;;;;0.50;0.00;;;;;10.31;62.54;101188.28;5002092;28;51274;-53
2021/05/25 01:18:23;;;;;;;;;0.25;0.00;;;;;10.31;62.88;101180.50;5001777;28;52273;-52
2021/05/25 01:20:51;;;;;;;;;0.00;0.00;;;;;10.33;62.68;101191.88;5002403;28;51293;-54
2021/05/25 01:23:17;;;;;;;;;0.00;0.00;;;;;10.34;63.00;101193.63;5002799;28;51893;-52
2021/05/25 01:25:46;;;;;;;;;0.00;0.00;;;;;10.34;62.70;101204.03;5006920;28;51262;-52
2021/05/25 01:28:12;;;;;;;;;0.25;0.25;;;;;10.35;63.36;101213.59;5002343;28;52227;-53
2021/05/25 01:30:46;;;;;;;;;0.00;0.00;;;;;10.32;62.98;101209.97;5001172;28;52174;-50
2021/05/25 01:33:12;;;;;;;;;0.00;0.00;;;;;10.26;63.59;101213.13;5002113;28;53684;-52
2021/05/25 01:35:38;;;;;;;;;0.00;0.00;;;;;10.23;63.41;101220.78;5003188;28;51890;-51
2021/05/25 01:38:06;;;;;;;;;0.00;0.00;;;;;10.20;63.07;101225.81;5004679;28;52321;-50
2021/05/25 01:40:32;;;;;;;;;0.00;0.00;;;;;10.18;62.94;101228.31;5002639;28;51231;-50
2021/05/25 01:42:58;;;;;;;;;1.00;0.00;;;;;10.13;64.03;101229.78;5000323;28;51231;-52
2021/05/25 01:45:26;;;;;;;;;0.00;0.00;;;;;10.11;62.98;101234.03;5002743;28;51244;-51
2021/05/25 01:47:54;;;;;;;;;0.00;0.00;;;;;10.08;63.71;101232.13;5001621;28;51104;-51
2021/05/25 01:50:20;;;;;;;;;0.00;0.00;;;;;10.08;63.32;101226.94;5004546;28;51189;-53
2021/05/25 01:52:49;;;;;;;;;0.00;0.00;;;;;10.08;62.64;101231.28;5003745;28;51903;-51
2021/05/25 01:55:30;;;;;;;;;0.00;0.00;;;;;10.07;63.28;101243.34;5006207;28;51295;-53
2021/05/25 01:58:06;;;;;;;;;0.00;0.00;;;;;10.07;63.49;101239.88;5003518;28;51772;-53
2021/05/25 02:00:31;;;;;;;;;0.00;0.00;;;;;10.05;63.33;101241.47;5002216;28;51393;-50
2021/05/25 02:02:57;;;;;;;;;0.00;0.00;;;;;10.02;63.06;101241.34;5003155;28;51485;-53
2021/05/25 02:05:23;;;;;;;;;0.00;0.00;;;;;9.98;63.38;101225.59;5005147;28;51330;-54
2021/05/25 02:07:50;;;;;;;;;0.00;0.00;;;;;9.96;63.58;101236.72;5004192;28;51521;-54
2021/05/25 02:10:26;;;;;;;;;0.00;0.00;;;;;9.90;63.54;101245.06;4999808;28;51070;-52
2021/05/25 02:12:56;;;;;;;;;0.00;0.00;;;;;9.88;63.49;101244.09;5003245;28;51142;-53
2021/05/25 02:15:21;;;;;;;;;0.25;0.25;;;;;9.84;63.41;101240.44;4987413;28;51432;-53
2021/05/25 02:17:47;;;;;;;;;0.00;0.00;;;;;9.83;63.13;101251.63;5002618;28;51332;-53
2021/05/25 02:20:13;;;;;;;;;0.00;0.00;;;;;9.82;62.84;101255.03;5002296;28;51360;-53
2021/05/25 02:22:38;;;;;;;;;0.50;0.50;;;;;9.83;63.08;101266.34;5002252;28;51312;-51
2021/05/25 02:25:04;;;;;;;;;0.00;0.00;;;;;9.84;62.98;101257.72;5003837;28;51163;-53
2021/05/25 02:27:30;;;;;;;;;0.75;0.00;;;;;9.85;63.03;101263.00;5003774;28;52444;-53
2021/05/25 02:29:55;;;;;;;;;0.00;0.00;;;;;9.85;63.10;101265.59;5001148;28;51001;-52
2021/05/25 02:32:21;;;;;;;;;0.00;0.00;;;;;9.83;63.41;101267.19;5005213;28;51112;-52
2021/05/25 02:34:46;;;;;;;;;0.00;0.00;;;;;9.83;63.70;101269.78;5004773;28;51459;-50
2021/05/25 02:37:12;;;;;;;;;0.00;0.00;;;;;9.85;63.42;101265.59;5003281;28;51128;-53
2021/05/25 02:39:37;;;;;;;;;0.00;0.00;;;;;9.87;63.76;101262.19;5001142;28;53604;-54
2021/05/25 02:42:04;;;;;;;;;0.00;0.00;;;;;9.87;63.54;101267.38;5003167;28;51547;-53
2021/05/25 02:44:29;;;;;;;;;0.00;0.00;;;;;9.82;63.34;101264.53;4968810;28;51691;-53
2021/05/25 02:46:55;;;;;;;;;0.00;0.00;;;;;9.82;63.73;101265.44;5004046;28;51029;-51
2021/05/25 02:49:20;;;;;;;;;0.67;0.00;;;;;9.85;64.07;101277.66;5003708;28;51359;-51
2021/05/25 02:51:46;;;;;;;;;0.00;0.00;;;;;9.88;63.78;101280.44;5004972;28;51320;-52
2021/05/25 02:54:11;;;;;;;;;0.00;0.00;;;;;9.87;63.78;101280.34;5004847;28;51415;-51
2021/05/25 02:56:36;;;;;;;;;1.00;0.00;;;;;9.88;64.42;101292.50;5000767;28;51262;-51
2021/05/25 02:59:02;;;;;;;;;0.00;0.00;;;;;9.87;63.96;101282.94;5005387;28;51067;-53
2021/05/25 03:01:27;;;;;;;;;6.25;5.00;;;;;9.85;63.81;101281.16;5003623;28;51065;-53
2021/05/25 03:03:53;;;;;;;;;1.00;0.25;;;;;9.83;64.16;101287.97;5003853;28;51458;-53
2021/05/25 03:06:18;;;;;;;;;0.00;0.00;;;;;9.77;64.57;101290.22;5003029;28;53298;-52
2021/05/25 03:08:44;;;;;;;;;3.00;2.00;;;;;9.76;64.77;101291.06;5002211;28;52886;-51
2021/05/25 03:11:09;;;;;;;;;0.75;0.75;;;;;9.77;64.82;101292.81;4970684;28;51544;-52
2021/05/25 03:13:34;;;;;;;;;1.50;1.00;;;;;9.76;65.00;101293.66;5004120;28;51953;-53
2021/05/25 03:16:00;;;;;;;;;1.00;0.50;;;;;9.80;64.93;101297.28;5000672;28;51911;-51
2021/05/25 03:18:25;;;;;;;;;1.00;1.00;;;;;9.80;65.33;101298.16;4987834;28;51055;-50
2021/05/25 03:20:51;;;;;;;;;1.00;1.00;;;;;9.84;65.28;101302.69;5006573;28;51265;-54
2021/05/25 03:23:17;;;;;;;;;1.00;1.00;;;;;9.88;65.75;101298.59;4986565;28;51448;-53
2021/05/25 03:25:44;;;;;;;;;1.00;1.00;;;;;9.93;65.30;101304.00;4986603;28;54343;-53
2021/05/25 03:28:10;;;;;;;;;1.25;1.25;;;;;10.01;65.50;101312.19;4987267;28;51318;-53
2021/05/25 03:30:37;;;;;;;;;1.50;1.00;;;;;10.02;65.34;101311.41;5002426;28;51343;-55
2021/05/25 03:33:03;;;;;;;;;2.25;2.00;;;;;10.05;65.19;101314.13;5004891;28;51172;-54
2021/05/25 03:35:29;;;;;;;;;1.75;1.00;;;;;10.07;65.28;101312.53;4964721;28;52183;-55
2021/05/25 03:37:55;;;;;;;;;3.00;2.00;;;;;10.04;65.09;101313.28;5001987;28;51901;-58
2021/05/25 03:40:22;;;;;;;;;1.00;1.00;;;;;9.98;65.21;101315.53;5005835;28;51170;-51
2021/05/25 03:42:49;;;;;;;;;2.00;2.00;;;;;9.94;65.23;101321.34;4983937;28;51707;-53
2021/05/25 03:45:16;;;;;;;;;4.00;2.00;;;;;9.94;65.16;101316.16;5004898;28;52378;-54
2021/05/25 03:47:41;;;;;;;;;3.00;2.00;;;;;9.93;65.47;101324.75;4986217;28;51595;-53
2021/05/25 03:50:08;;;;;;;;;2.00;1.00;;;;;9.89;65.63;101325.41;5001265;28;51295;-54
2021/05/25 03:52:39;;;;;;;;;2.00;1.00;;;;;9.89;65.39;101323.72;5003671;28;51563;-54
2021/05/25 03:55:19;;;;;;;;;3.00;3.00;;;;;9.92;65.80;101325.59;5003308;28;52239;-54
2021/05/25 04:00:28;;;;;;;;;1.50;1.00;;;;;9.89;65.94;101335.78;4989572;28;51219;-53
2021/05/25 04:02:53;;;;;;;;;2.50;2.25;;;;;9.89;65.88;101346.16;5005630;28;51386;-51
2021/05/25 04:05:19;;;;;;;;;1.50;1.00;;;;;9.91;65.79;101352.34;4986539;28;53402;-54
2021/05/25 04:07:44;;;;;;;;;1.50;1.00;;;;;9.93;65.23;101353.31;4999903;28;51255;-51
2021/05/25 04:10:10;;;;;;;;;2.25;2.25;;;;;9.89;65.39;101360.03;5005242;28;51299;-54
2021/05/25 04:12:35;;;;;;;;;1.00;1.00;;;;;9.86;65.91;101352.09;4984024;28;51200;-51
2021/05/25 04:15:01;;;;;;;;;4.00;2.00;;;;;9.80;65.66;101355.22;4985134;28;54884;-50
2021/05/25 04:17:26;;;;;;;;;3.00;2.25;;;;;9.75;65.72;101358.41;5002293;28;51102;-52
2021/05/25 04:19:52;;;;;;;;;2.50;2.00;;;;;9.66;65.98;101369.16;4986601;28;51358;-53
2021/05/25 04:22:17;;;;;;;;;3.25;2.50;;;;;9.58;66.14;101366.13;5006294;28;51282;-53
2021/05/25 04:24:42;;;;;;;;;2.25;1.00;;;;;9.52;65.96;101363.22;5007806;28;51703;-52
2021/05/25 04:27:08;;;;;;;;;4.00;1.75;;;;;9.48;66.20;101364.75;4987675;28;51338;-53
2021/05/25 04:29:33;;;;;;;;;1.75;1.00;;;;;9.50;66.34;101370.91;4987371;28;51092;-52
2021/05/25 04:31:59;;;;;;;;;1.00;1.00;;;;;9.55;66.37;101374.63;4992786;28;51276;-52
2021/05/25 04:34:24;;;;;;;;;1.50;1.00;;;;;9.58;66.64;101374.81;5005758;28;51204;-53
2021/05/25 04:36:49;;;;;;;;;1.00;1.00;;;;;9.62;66.68;101385.34;5007916;28;53318;-54
2021/05/25 04:39:15;;;;;;;;;4.50;2.75;;;;;9.63;66.67;101384.56;4990865;28;51805;-53
2021/05/25 04:41:40;;;;;;;;;1.00;1.00;;;;;9.69;66.22;101392.66;5005357;28;51471;-52
2021/05/25 04:44:05;;;;;;;;;3.75;3.00;;;;;9.80;66.14;101401.06;5008640;28;51705;-53
2021/05/25 04:46:31;;;;;;;;;2.50;1.00;;;;;9.89;66.30;101401.56;5006536;28;52985;-53
2021/05/25 04:48:56;;;;;;;;;2.25;1.50;;;;;9.88;66.12;101398.88;4986839;28;51683;-53
2021/05/25 04:51:21;;;;;;;;;1.50;1.50;;;;;9.88;66.21;101409.25;5007786;28;51399;-51
2021/05/25 04:53:47;;;;;;;;;1.25;1.00;;;;;9.93;66.04;101410.38;4985153;28;52113;-51
2021/05/25 04:56:13;;;;;;;;;2.00;1.00;;;;;9.94;65.91;101409.56;4985881;28;51315;-52
2021/05/25 04:58:38;;;;;;;;;2.00;2.00;;;;;9.95;66.22;101421.75;5007788;28;51654;-54
2021/05/25 05:01:04;;;;;;;;;2.00;1.25;;;;;9.92;66.24;101417.31;5004396;28;52312;-51
2021/05/25 05:03:29;;;;;;;;;2.00;1.00;;;;;10.01;66.18;101428.97;5005635;28;51899;-54
2021/05/25 05:05:55;;;;;;;;;1.75;1.00;;;;;10.11;65.43;101426.97;4988022;28;51186;-50
2021/05/25 05:08:20;;;;;;;;;4.00;1.00;;;;;10.16;65.57;101416.84;5005191;28;51120;-53
2021/05/25 05:10:45;;;;;;;;;1.75;0.00;;;;;10.19;65.63;101436.88;4992386;28;52135;-52
2021/05/25 05:13:11;;;;;;;;;2.00;1.50;;;;;10.27;65.13;101435.56;5004476;28;53119;-52
2021/05/25 05:15:36;;;;;;;;;2.00;1.75;;;;;10.32;65.29;101439.31;5005134;28;51623;-54
2021/05/25 05:18:02;;;;;;;;;2.00;1.00;;;;;10.43;65.20;101444.19;5007857;28;51171;-53
2021/05/25 05:20:28;;;;;;;;;1.00;1.00;;;;;10.57;64.94;101445.84;4987288;28;51273;-51
2021/05/25 05:22:53;;;;;;;;;1.00;1.00;;;;;10.74;64.38;101445.84;4998156;28;51818;-55
2021/05/25 05:25:19;;;;;;;;;3.00;2.00;;;;;10.93;63.98;101450.25;4996944;28;51442;-57
2021/05/25 05:27:45;;;;;;;;;1.75;1.50;;;;;10.98;63.50;101464.38;4998844;28;51137;-51
2021/05/25 05:30:11;;;;;;;;;1.75;1.00;;;;;11.08;63.17;101465.75;5002506;28;51203;-54
2021/05/25 05:32:37;;;;;;;;;1.00;1.00;;;;;11.20;63.29;101460.28;5002800;28;53356;-52
2021/05/25 05:35:04;;;;;;;;;2.75;1.75;;;;;11.31;63.58;101468.63;5001690;28;51394;-52
2021/05/25 05:37:29;;;;;;;;;4.75;2.25;;;;;11.38;62.63;101464.63;5003648;28;51173;-53
2021/05/25 05:39:55;;;;;;;;;2.00;1.75;;;;;11.47;62.04;101464.16;5001509;28;51288;-54
2021/05/25 05:42:20;;;;;;;;;2.00;1.75;;;;;11.58;61.84;101463.00;4999600;28;51940;-54
2021/05/25 05:44:48;;;;;;;;;3.00;2.00;;;;;11.65;61.50;101466.75;5003967;28;51272;-54
2021/05/25 05:47:13;;;;;;;;;3.00;3.00;;;;;11.70;61.49;101465.31;4998189;28;51464;-54
2021/05/25 05:49:39;;;;;;;;;3.25;1.00;;;;;11.95;61.79;101474.28;4995338;28;51440;-51
2021/05/25 05:52:04;;;;;;;;;2.33;2.00;;;;;12.59;60.45;101469.38;5007181;28;53595;-53
2021/05/25 05:54:29;;;;;;;;;4.00;3.00;;;;;12.84;60.40;101475.66;4971037;28;51318;-54
2021/05/25 05:56:55;;;;;;;;;1.00;1.00;;;;;13.90;58.93;101475.72;4992344;28;51119;-51
2021/05/25 05:59:20;;;;;;;;;2.33;2.00;;;;;14.18;57.67;101491.56;4985047;28;51279;-53
2021/05/25 06:01:46;;;;;;;;;2.67;2.67;;;;;14.28;57.33;101490.22;4986336;28;53735;-50
2021/05/25 06:04:11;;;;;;;;;2.00;2.00;;;;;14.43;55.96;101493.38;5007077;28;51469;-53
2021/05/25 06:06:36;;;;;;;;;2.00;1.33;;;;;14.33;56.03;101495.59;5002416;28;51287;-52
2021/05/25 06:09:03;;;;;;;;;2.00;2.00;;;;;14.68;55.31;101493.41;5006317;28;51385;-53
2021/05/25 06:11:29;;;;;;;;;3.33;2.33;;;;;14.88;55.28;101498.50;5003857;28;52101;-51
2021/05/25 06:13:54;;;;;;;;;4.00;3.67;;;;;14.95;53.24;101501.38;4998198;28;51195;-53
2021/05/25 06:16:19;;;;;;;;;2.00;2.00;;;;;15.06;53.79;101504.38;5004855;28;51373;-54
2021/05/25 06:18:45;;;;;;;;;2.67;2.67;;;;;15.26;53.96;101498.06;5007122;28;52531;-55
2021/05/25 06:21:10;;;;;;;;;2.00;2.00;;;;;15.28;53.25;101512.97;5001991;28;51688;-54
2021/05/25 06:23:35;;;;;;;;;5.67;3.00;;;;;15.13;53.34;101510.72;5004793;28;51089;-55
2021/05/25 06:26:02;;;;;;;;;5.67;5.00;;;;;15.00;53.29;101512.00;5006818;28;51247;-52
2021/05/25 06:28:30;;;;;;;;;4.00;3.00;;;;;14.98;53.44;101515.41;5002171;28;51388;-55
2021/05/25 06:30:56;;;;;;;;;3.00;3.00;;;;;15.75;52.30;101520.59;4999852;28;51987;-53
2021/05/25 06:33:22;;;;;;;;;4.00;4.00;;;;;16.43;51.64;101514.81;5001198;28;51713;-52
2021/05/25 06:35:49;;;;;;;;;3.67;3.33;;;;;16.37;50.79;101513.78;5007640;28;51296;-53
2021/05/25 06:38:14;;;;;;;;;4.33;4.00;;;;;17.03;50.46;101523.50;4986149;28;51424;-53
2021/05/25 06:40:40;;;;;;;;;2.00;2.00;;;;;16.84;49.34;101533.47;5003033;28;51966;-54
2021/05/25 06:43:05;;;;;;;;;4.00;3.33;;;;;16.62;49.50;101530.25;5005131;28;52179;-52
2021/05/25 06:45:31;;;;;;;;;6.00;4.00;;;;;16.97;50.59;101528.59;5002872;28;51474;-51
2021/05/25 06:47:56;;;;;;;;;3.33;3.00;;;;;17.59;48.94;101524.94;5004627;28;51091;-53
2021/05/25 06:50:21;;;;;;;;;6.00;5.67;;;;;18.31;47.01;101527.50;4997617;28;51782;-55
2021/05/25 06:52:47;;;;;;;;;3.00;2.00;;;;;19.33;47.09;101522.50;5001718;28;50970;-53
2021/05/25 06:55:13;;;;;;;;;6.00;5.00;;;;;21.15;45.80;101532.03;4996901;28;52559;-54
2021/05/25 06:57:39;;;;;;;;;4.67;4.00;;;;;22.99;43.54;101532.28;4988629;28;51483;-51
2021/05/25 07:00:08;;;;;;;;;1.33;1.00;;;;;24.15;41.79;101534.06;4987728;28;51827;-53
2021/05/25 07:02:34;;;;;;;;;3.67;2.33;;;;;24.86;38.29;101529.34;4999251;28;51813;-53
2021/05/25 07:05:00;;;;;;;;;4.67;3.67;;;;;24.89;36.96;101542.63;5002403;28;51184;-52
2021/05/25 07:07:25;;;;;;;;;4.00;3.00;;;;;25.10;37.48;101538.03;4999370;28;52926;-52
2021/05/25 07:12:20;;;;;;;;;3.00;3.00;;;;;27.63;35.00;101539.50;5002469;28;51636;-46
2021/05/25 07:14:46;;;;;;;;;4.33;4.33;;;;;29.00;34.57;101535.00;5012331;28;51046;-47
2021/05/25 07:17:12;;;;;;;;;3.00;2.33;;;;;28.94;28.61;101536.91;5015015;28;51333;-49
2021/05/25 07:19:37;;;;;;;;;22.00;21.33;;;;;27.76;29.14;101531.28;5009100;28;51175;-47
2021/05/25 07:22:03;;;;;;;;;3.67;3.00;;;;;27.44;29.72;101538.03;5010753;28;51272;-46
2021/05/25 07:24:29;;;;;;;;;3.67;3.67;;;;;27.43;30.74;101544.28;5009976;28;51336;-49
2021/05/25 07:26:55;;;;;;;;;4.00;3.33;;;;;28.30;29.35;101540.94;5001980;28;51142;-49
2021/05/25 07:29:20;;;;;;;;;5.33;5.00;;;;;28.66;52.92;101555.34;5001640;28;51897;-48
2021/05/25 07:31:46;;;;;;;;;8.33;7.67;;;;;28.35;35.53;101545.31;5004288;28;51255;-49
2021/05/25 07:34:12;;;;;;;;;3.00;2.00;;;;;28.02;33.91;101543.28;5001231;28;51569;-52
2021/05/25 07:36:37;;;;;;;;;4.00;3.00;;;;;29.40;33.65;101541.19;5006749;28;50984;-50
2021/05/25 07:39:05;;;;;;;;;3.00;3.00;;;;;30.80;30.31;101536.44;5005357;28;51309;-52
2021/05/25 07:41:31;;;;;;;;;9.67;7.00;;;;;31.48;30.14;101536.94;4997709;28;51136;-50
2021/05/25 07:43:56;;;;;;;;;1.00;1.00;;;;;31.33;27.67;101548.16;5000492;28;51498;-49
2021/05/25 07:46:24;;;;;;;;;3.00;3.00;;;;;30.53;28.93;101547.94;5005053;28;51225;-47
2021/05/25 07:48:50;;;;;;;;;2.67;2.00;;;;;30.24;27.88;101547.03;5006240;28;51276;-49
2021/05/25 07:51:16;;;;;;;;;4.33;4.00;;;;;30.60;28.87;101543.28;4999584;28;51176;-50
2021/05/25 07:53:42;;;;;;;;;3.00;2.00;;;;;29.54;26.23;101546.19;5002439;28;51267;-53
2021/05/25 07:56:08;;;;;;;;;2.00;1.33;;;;;27.69;27.89;101550.97;5005917;28;51069;-50
2021/05/25 07:58:33;;;;;;;;;5.00;3.33;;;;;27.22;27.55;101549.06;5001982;28;51682;-50
2021/05/25 08:00:59;;;;;;;;;5.00;4.00;;;;;27.61;28.00;101553.78;5004538;28;51151;-51
2021/05/25 08:03:24;;;;;;;;;3.00;3.00;;;;;28.51;29.64;101559.22;5003445;28;51197;-52
2021/05/25 08:05:50;;;;;;;;;3.33;2.67;;;;;29.02;28.23;101555.47;4986588;28;51207;-51
2021/05/25 08:08:15;;;;;;;;;2.00;2.00;;;;;29.72;26.97;101560.88;4996367;28;52716;-52
2021/05/25 08:10:40;;;;;;;;;1.67;1.67;;;;;29.33;26.34;101556.50;5003873;28;51255;-52
2021/05/25 08:13:07;;;;;;;;;2.00;2.00;;;;;29.38;25.75;101561.72;5003265;28;51181;-53
2021/05/25 08:15:34;;;;;;;;;2.33;2.00;;;;;29.01;24.13;101556.34;5003252;28;51802;-47
2021/05/25 08:20:44;;;;;;;;;3.00;3.00;;;;;29.30;25.54;101553.91;5003989;28;51266;-47
2021/05/25 08:23:11;;;;;;;;;3.00;2.00;;;;;29.74;23.94;101559.94;4997246;28;51123;-53
2021/05/25 08:25:38;;;;;;;;;3.00;2.00;;;;;31.12;24.88;101566.72;4984728;28;51157;-50
2021/05/25 08:28:05;;;;;;;;;3.00;2.00;;;;;31.53;23.90;101564.47;5006596;28;50976;-49
2021/05/25 08:30:33;;;;;;;;;2.00;1.33;;;;;32.74;23.59;101572.66;5000080;28;51250;-50
2021/05/25 08:32:58;;;;;;;;;2.00;2.00;;;;;34.01;20.42;101570.16;5006495;28;51141;-50
2021/05/25 08:35:26;;;;;;;;;2.00;1.67;;;;;34.63;21.99;101567.34;5006947;28;51372;-50
2021/05/25 08:37:56;;;;;;;;;1.33;1.33;;;;;34.94;21.50;101564.97;5004977;28;53116;-50
2021/05/25 08:40:24;;;;;;;;;1.00;1.00;;;;;36.03;20.43;101575.69;5002116;28;51534;-47
2021/05/25 08:42:50;;;;;;;;;2.00;1.00;;;;;37.06;20.31;101561.03;5005704;28;51137;-50
2021/05/25 08:45:16;;;;;;;;;2.00;0.00;;;;;36.55;19.24;101570.22;5006196;28;51259;-48
2021/05/25 08:47:43;;;;;;;;;0.00;0.00;;;;;36.51;19.59;101570.38;5003778;28;51948;-48
2021/05/25 08:50:11;;;;;;;;;0.00;0.00;;;;;35.28;18.77;101576.84;4997805;28;51157;-51
2021/05/25 08:52:37;;;;;;;;;1.67;0.33;;;;;33.34;19.13;101560.44;5002664;28;51441;-52
2021/05/25 08:55:05;;;;;;;;;1.00;1.00;;;;;32.01;19.66;101570.00;5003872;28;51069;-50
2021/05/25 08:57:31;;;;;;;;;2.00;2.00;;;;;31.21;20.69;101569.09;5006625;28;51589;-48
2021/05/25 08:59:56;;;;;;;;;2.67;2.00;;;;;30.64;21.27;101569.94;5005573;28;51204;-49
2021/05/25 09:02:22;;;;;;;;;2.00;1.00;;;;;29.90;21.56;101580.03;5004702;28;51262;-49
2021/05/25 09:05:19;;;;;;;;;1.00;1.00;;;;;28.93;21.91;101566.38;5008364;28;51360;-52
2021/05/25 09:07:47;;;;;;;;;1.00;1.00;;;;;27.89;23.18;101562.19;5007374;28;52089;-51
2021/05/25 09:10:34;;;;;;;;;2.00;2.00;;;;;27.73;22.86;101566.03;5005421;28;51216;-51
2021/05/25 09:13:00;;;;;;;;;4.00;4.00;;;;;27.02;24.24;101563.56;5006191;28;51182;-53
2021/05/25 09:15:42;;;;;;;;;3.00;3.00;;;;;26.61;24.57;101563.22;5009052;28;51223;-51
2021/05/25 09:18:10;;;;;;;;;6.00;5.00;;;;;25.63;24.93;101574.88;4992299;28;51903;-52
2021/05/25 09:20:46;;;;;;;;;3.67;3.67;;;;;24.52;25.99;101575.50;5008827;28;51137;-49
2021/05/25 09:23:23;;;;;;;;;2.67;2.67;;;;;23.66;27.24;101582.72;5008073;28;51120;-52
2021/05/25 09:26:06;;;;;;;;;2.33;2.00;;;;;23.30;27.46;101569.38;5008237;28;51063;-49
2021/05/25 09:28:51;;;;;;;;;4.00;2.33;;;;;22.57;28.61;101585.06;5006219;28;52148;-49
2021/05/25 09:31:18;;;;;;;;;4.00;3.33;;;;;23.75;29.42;101571.22;5006557;28;51047;-52
2021/05/25 09:34:12;;;;;;;;;4.67;4.00;;;;;24.94;27.94;101555.84;5007125;28;51176;-54
2021/05/25 09:36:58;;;;;;;;;1.00;1.00;;;;;24.55;25.93;101563.97;5005860;28;51248;-54
2021/05/25 09:39:25;;;;;;;;;1.67;1.67;;;;;24.01;27.38;101562.38;5004512;28;52076;-49
2021/05/25 09:42:13;;;;;;;;;2.00;2.00;;;;;24.40;27.92;101571.13;5009778;28;51033;-52
2021/05/25 09:44:56;;;;;;;;;2.00;1.33;;;;;24.44;27.18;101564.91;5008620;28;51430;-51
2021/05/25 09:47:38;;;;;;;;;1.00;1.00;;;;;24.36;27.62;101556.09;5009521;28;51114;-48
2021/05/25 09:50:07;;;;;;;;;4.33;4.00;;;;;24.80;27.64;101556.78;5003458;28;51827;-49
2021/05/25 09:52:33;;;;;;;;;2.33;2.33;;;;;24.36;27.94;101549.03;4988588;28;51282;-49
2021/05/25 09:55:04;;;;;;;;;3.00;2.00;;;;;23.83;27.94;101556.19;5006582;28;51348;-51
2021/05/25 09:57:46;;;;;;;;;2.67;2.00;;;;;23.63;28.54;101557.09;5008319;28;51065;-51
2021/05/25 10:00:29;;;;;;;;;2.00;1.00;;;;;24.41;28.43;101562.25;5007426;28;53092;-51
2021/05/25 10:03:27;;;;;;;;;15.67;14.67;;;;;24.18;28.12;101560.56;4971314;28;51638;-50
2021/05/25 10:05:55;;;;;;;;;2.33;2.33;;;;;23.77;27.94;101564.13;4985193;28;51150;-52
2021/05/25 10:08:23;;;;;;;;;2.00;1.00;;;;;23.14;28.23;101571.16;5009350;28;50959;-47
2021/05/25 10:10:57;;;;;;;;;1.00;1.00;;;;;22.08;29.38;101568.91;5006442;28;52837;-56
2021/05/25 10:13:25;;;;;;;;;1.67;1.67;;;;;20.93;30.70;101581.09;5007581;28;51644;-50
2021/05/25 10:15:51;;;;;;;;;5.67;5.67;;;;;20.17;32.99;101588.84;5008537;28;51021;-51
2021/05/25 10:20:45;;;;;;;;;1.00;1.00;;;;;19.44;34.55;101603.44;5007759;28;50988;-50
2021/05/25 10:23:11;;;;;;;;;2.00;2.00;;;;;19.37;35.64;101615.59;5008116;28;51267;-46
2021/05/25 10:25:40;;;;;;;;;4.33;3.67;;;;;19.18;36.12;101625.78;5004878;28;51893;-48
2021/05/25 10:28:15;;;;;;;;;2.67;2.00;;;;;18.95;37.24;101634.06;5008922;28;51487;-48
2021/05/25 10:30:44;;;;;;;;;1.33;1.33;;;;;18.69;38.16;101647.56;5005165;28;53247;-51
2021/05/25 10:33:09;;;;;;;;;4.00;4.00;;;;;18.45;38.81;101640.91;5008580;28;51026;-50
2021/05/25 10:35:54;;;;;;;;;2.33;2.33;;;;;18.29;39.84;101638.75;5008711;28;51008;-49
2021/05/25 10:38:30;;;;;;;;;8.33;8.00;;;;;18.32;39.93;101644.09;5006331;28;51099;-50
2021/05/25 10:41:06;;;;;;;;;1.67;1.67;;;;;18.58;39.79;101643.78;5001866;28;52318;-56
2021/05/25 10:43:34;;;;;;;;;4.33;3.00;;;;;18.58;40.31;101649.94;5006681;28;51273;-50
2021/05/25 10:46:27;;;;;;;;;3.33;3.33;;;;;18.36;41.22;101635.44;4991482;28;51093;-50
2021/05/25 10:51:49;;;;;;;;;3.00;3.00;;;;;18.30;41.72;101633.53;5006584;28;52060;-50
2021/05/25 10:54:43;;;;;;;;;6.00;3.67;;;;;18.33;42.32;101625.72;5005596;28;51442;-50
2021/05/25 10:57:33;;;;;;;;;2.67;2.67;;;;;18.78;42.02;101627.56;4997565;28;52830;-52
2021/05/25 11:00:12;;;;;;;;;3.00;3.00;;;;;19.52;40.89;101623.81;5004115;28;51521;-52
2021/05/25 11:02:51;;;;;;;;;3.33;3.33;;;;;21.50;40.07;101617.75;5010596;28;51696;-51
2021/05/25 11:05:49;;;;;;;;;7.00;6.33;;;;;22.48;36.49;101621.16;5013352;28;51212;-48
2021/05/25 11:08:14;;;;;;;;;3.33;3.00;;;;;22.53;36.20;101618.56;5010883;28;51135;-53
2021/05/25 11:10:53;;;;;;;;;2.33;2.00;;;;;25.00;35.71;101615.16;5006433;28;51087;-51
2021/05/25 11:13:22;;;;;;;;;4.00;3.00;;;;;28.33;30.57;101609.44;5008938;28;51145;-49
2021/05/25 11:16:00;;;;;;;;;1.00;1.00;;;;;29.73;25.95;101598.31;5010831;28;51142;-50
2021/05/25 11:18:36;;;;;;;;;2.00;2.00;;;;;29.96;28.06;101602.19;5008351;28;51101;-50
2021/05/25 11:21:13;;;;;;;;;2.67;2.67;;;;;29.83;27.96;101600.75;4994105;28;51033;-50
2021/05/25 11:23:43;;;;;;;;;2.00;2.00;;;;;29.32;28.44;101608.22;4992668;28;53092;-52
2021/05/25 11:26:09;;;;;;;;;4.00;4.00;;;;;28.62;27.46;101602.59;5010160;28;51112;-50
2021/05/25 11:29:12;;;;;;;;;4.00;3.00;;;;;27.89;27.34;101604.00;5008049;28;51153;-50
2021/05/25 11:31:39;;;;;;;;;4.00;4.00;;;;;27.43;28.67;101600.28;5001183;28;52202;-53
2021/05/25 11:34:05;;;;;;;;;2.00;1.67;;;;;26.97;27.39;101600.06;4988723;28;52117;-51
2021/05/25 11:36:32;;;;;;;;;1.33;1.33;;;;;25.44;27.74;101604.25;5004560;28;51010;-50
2021/05/25 11:38:57;;;;;;;;;1.00;1.00;;;;;23.83;29.19;101591.53;4989756;28;51522;-52
2021/05/25 11:41:23;;;;;;;;;2.00;2.00;;;;;22.65;30.96;101580.72;5011208;28;51461;-53
2021/05/25 11:43:49;;;;;;;;;3.33;2.33;;;;;22.00;32.25;101578.56;5008821;28;51828;-52